sensor_id;sensor_type;location;lat;lon;timestamp;P1;durP1;ratioP1;P2;durP2;ratioP2
18526;SDS011;9393;42.158;24.748;2022-12-29T00:01:55;17.47;;;9.17;;
18526;SDS011;9393;42.158;24.748;2022-12-29T00:04:59;22.60;;;10.57;;
18526;SDS011;9393;42.158;24.748;2022-12-29T00:08:02;18.33;;;11.27;;
18526;SDS011;9393;42.158;24.748;2022-12-29T00:11:08;17.77;;;10.90;;
18526;SDS011;9393;42.158;24.748;2022-12-29T00:14:14;22.20;;;10.93;;
18526;SDS011;9393;42.158;24.748;2022-12-29T00:17:35;22.90;;;13.23;;
18526;SDS011;9393;42.158;24.748;2022-12-29T00:20:38;17.17;;;10.43;;
18526;SDS011;9393;42.158;24.748;2022-12-29T00:23:59;30.30;;;18.13;;
18526;SDS011;9393;42.158;24.748;2022-12-29T00:27:36;21.20;;;11.27;;
18526;SDS011;9393;42.158;24.748;2022-12-29T00:31:03;48.87;;;26.60;;
18526;SDS011;9393;42.158;24.748;2022-12-29T00:34:42;20.07;;;11.40;;
18526;SDS011;9393;42.158;24.748;2022-12-29T00:38:04;18.87;;;9.30;;
18526;SDS011;9393;42.158;24.748;2022-12-29T00:41:28;19.60;;;9.87;;
18526;SDS011;9393;42.158;24.748;2022-12-29T00:44:51;17.50;;;9.50;;
18526;SDS011;9393;42.158;24.748;2022-12-29T00:47:54;18.20;;;11.40;;
18526;SDS011;9393;42.158;24.748;2022-12-29T00:50:58;23.50;;;10.53;;
18526;SDS011;9393;42.158;24.748;2022-12-29T00:54:00;19.50;;;10.27;;
18526;SDS011;9393;42.158;24.748;2022-12-29T00:57:05;19.93;;;10.10;;
18526;SDS011;9393;42.158;24.748;2022-12-29T01:00:12;17.07;;;9.40;;
18526;SDS011;9393;42.158;24.748;2022-12-29T01:03:17;21.97;;;10.87;;
18526;SDS011;9393;42.158;24.748;2022-12-29T01:06:21;20.00;;;10.07;;
18526;SDS011;9393;42.158;24.748;2022-12-29T01:09:25;18.70;;;9.83;;
18526;SDS011;9393;42.158;24.748;2022-12-29T01:12:46;20.13;;;10.77;;
18526;SDS011;9393;42.158;24.748;2022-12-29T01:15:53;24.87;;;11.20;;
18526;SDS011;9393;42.158;24.748;2022-12-29T01:18:57;22.57;;;12.33;;
18526;SDS011;9393;42.158;24.748;2022-12-29T01:22:01;20.90;;;11.80;;
18526;SDS011;9393;42.158;24.748;2022-12-29T01:25:05;23.47;;;11.83;;
18526;SDS011;9393;42.158;24.748;2022-12-29T01:28:12;24.37;;;13.07;;
18526;SDS011;9393;42.158;24.748;2022-12-29T01:31:21;24.73;;;12.57;;
18526;SDS011;9393;42.158;24.748;2022-12-29T01:34:27;22.43;;;12.57;;
18526;SDS011;9393;42.158;24.748;2022-12-29T01:37:31;21.87;;;12.13;;
18526;SDS011;9393;42.158;24.748;2022-12-29T01:40:42;24.40;;;12.43;;
18526;SDS011;9393;42.158;24.748;2022-12-29T01:43:47;19.63;;;12.20;;
18526;SDS011;9393;42.158;24.748;2022-12-29T01:46:56;21.23;;;11.33;;
18526;SDS011;9393;42.158;24.748;2022-12-29T01:50:01;22.10;;;12.50;;
18526;SDS011;9393;42.158;24.748;2022-12-29T01:53:10;24.90;;;11.30;;
18526;SDS011;9393;42.158;24.748;2022-12-29T01:56:19;24.07;;;12.27;;
18526;SDS011;9393;42.158;24.748;2022-12-29T01:59:25;24.90;;;11.17;;
18526;SDS011;9393;42.158;24.748;2022-12-29T02:02:34;19.50;;;11.17;;
18526;SDS011;9393;42.158;24.748;2022-12-29T02:05:39;23.53;;;11.37;;
18526;SDS011;9393;42.158;24.748;2022-12-29T02:08:47;20.80;;;11.40;;
18526;SDS011;9393;42.158;24.748;2022-12-29T02:11:56;21.30;;;11.20;;
18526;SDS011;9393;42.158;24.748;2022-12-29T02:15:01;17.93;;;10.53;;
18526;SDS011;9393;42.158;24.748;2022-12-29T02:18:12;21.27;;;11.10;;
18526;SDS011;9393;42.158;24.748;2022-12-29T02:21:30;20.47;;;11.83;;
18526;SDS011;9393;42.158;24.748;2022-12-29T02:24:51;18.73;;;11.00;;
18526;SDS011;9393;42.158;24.748;2022-12-29T02:28:21;21.83;;;10.70;;
18526;SDS011;9393;42.158;24.748;2022-12-29T02:31:48;20.93;;;11.00;;
18526;SDS011;9393;42.158;24.748;2022-12-29T02:35:00;28.40;;;12.60;;
18526;SDS011;9393;42.158;24.748;2022-12-29T02:38:12;16.77;;;11.30;;
18526;SDS011;9393;42.158;24.748;2022-12-29T02:41:26;20.97;;;10.93;;
18526;SDS011;9393;42.158;24.748;2022-12-29T02:44:35;17.30;;;11.63;;
18526;SDS011;9393;42.158;24.748;2022-12-29T02:47:53;19.47;;;11.33;;
18526;SDS011;9393;42.158;24.748;2022-12-29T02:51:00;18.87;;;11.67;;
18526;SDS011;9393;42.158;24.748;2022-12-29T02:54:06;19.33;;;11.57;;
18526;SDS011;9393;42.158;24.748;2022-12-29T02:57:28;22.33;;;11.90;;
18526;SDS011;9393;42.158;24.748;2022-12-29T03:00:35;25.77;;;11.97;;
18526;SDS011;9393;42.158;24.748;2022-12-29T03:03:54;25.60;;;12.07;;
18526;SDS011;9393;42.158;24.748;2022-12-29T03:07:15;23.33;;;12.63;;
18526;SDS011;9393;42.158;24.748;2022-12-29T03:10:30;20.07;;;12.73;;
18526;SDS011;9393;42.158;24.748;2022-12-29T03:13:39;23.80;;;13.00;;
18526;SDS011;9393;42.158;24.748;2022-12-29T03:17:07;22.60;;;13.10;;
18526;SDS011;9393;42.158;24.748;2022-12-29T03:20:21;26.93;;;13.80;;
18526;SDS011;9393;42.158;24.748;2022-12-29T03:23:28;29.13;;;13.97;;
18526;SDS011;9393;42.158;24.748;2022-12-29T03:26:35;30.43;;;16.83;;
18526;SDS011;9393;42.158;24.748;2022-12-29T03:29:41;25.70;;;16.63;;
18526;SDS011;9393;42.158;24.748;2022-12-29T03:32:49;26.90;;;18.10;;
18526;SDS011;9393;42.158;24.748;2022-12-29T03:36:00;30.63;;;18.47;;
18526;SDS011;9393;42.158;24.748;2022-12-29T03:39:08;28.20;;;19.07;;
18526;SDS011;9393;42.158;24.748;2022-12-29T03:42:16;30.43;;;18.33;;
18526;SDS011;9393;42.158;24.748;2022-12-29T03:45:22;30.63;;;19.20;;
18526;SDS011;9393;42.158;24.748;2022-12-29T03:48:26;34.60;;;19.40;;
18526;SDS011;9393;42.158;24.748;2022-12-29T03:51:32;32.70;;;19.87;;
18526;SDS011;9393;42.158;24.748;2022-12-29T03:54:39;33.13;;;19.90;;
18526;SDS011;9393;42.158;24.748;2022-12-29T03:57:42;36.50;;;18.63;;
18526;SDS011;9393;42.158;24.748;2022-12-29T04:00:51;28.83;;;18.60;;
18526;SDS011;9393;42.158;24.748;2022-12-29T04:03:55;35.23;;;19.23;;
18526;SDS011;9393;42.158;24.748;2022-12-29T04:07:01;31.87;;;19.17;;
18526;SDS011;9393;42.158;24.748;2022-12-29T04:10:05;35.53;;;19.40;;
18526;SDS011;9393;42.158;24.748;2022-12-29T04:13:10;33.57;;;19.07;;
18526;SDS011;9393;42.158;24.748;2022-12-29T04:16:14;33.80;;;19.20;;
18526;SDS011;9393;42.158;24.748;2022-12-29T04:19:19;30.23;;;18.80;;
18526;SDS011;9393;42.158;24.748;2022-12-29T04:22:25;34.17;;;18.17;;
18526;SDS011;9393;42.158;24.748;2022-12-29T04:25:30;29.73;;;17.77;;
18526;SDS011;9393;42.158;24.748;2022-12-29T04:28:36;32.10;;;17.87;;
18526;SDS011;9393;42.158;24.748;2022-12-29T04:31:51;28.63;;;17.37;;
18526;SDS011;9393;42.158;24.748;2022-12-29T04:34:54;27.60;;;17.27;;
18526;SDS011;9393;42.158;24.748;2022-12-29T04:38:00;27.30;;;17.10;;
18526;SDS011;9393;42.158;24.748;2022-12-29T04:41:04;30.27;;;16.87;;
18526;SDS011;9393;42.158;24.748;2022-12-29T04:44:10;29.13;;;18.23;;
18526;SDS011;9393;42.158;24.748;2022-12-29T04:47:37;31.67;;;18.13;;
18526;SDS011;9393;42.158;24.748;2022-12-29T04:51:15;40.00;;;17.93;;
18526;SDS011;9393;42.158;24.748;2022-12-29T04:54:21;29.77;;;18.23;;
18526;SDS011;9393;42.158;24.748;2022-12-29T04:57:33;30.83;;;17.77;;
18526;SDS011;9393;42.158;24.748;2022-12-29T05:00:36;29.47;;;19.07;;
18526;SDS011;9393;42.158;24.748;2022-12-29T05:03:40;37.90;;;19.27;;
18526;SDS011;9393;42.158;24.748;2022-12-29T05:06:44;29.53;;;19.27;;
18526;SDS011;9393;42.158;24.748;2022-12-29T05:09:50;37.70;;;19.80;;
18526;SDS011;9393;42.158;24.748;2022-12-29T05:12:53;32.37;;;19.97;;
18526;SDS011;9393;42.158;24.748;2022-12-29T05:15:57;29.90;;;20.20;;
18526;SDS011;9393;42.158;24.748;2022-12-29T05:19:01;36.97;;;20.87;;
18526;SDS011;9393;42.158;24.748;2022-12-29T05:22:06;28.93;;;19.67;;
18526;SDS011;9393;42.158;24.748;2022-12-29T05:25:13;31.63;;;19.70;;
18526;SDS011;9393;42.158;24.748;2022-12-29T05:28:28;34.50;;;20.30;;
18526;SDS011;9393;42.158;24.748;2022-12-29T05:31:37;34.30;;;20.20;;
18526;SDS011;9393;42.158;24.748;2022-12-29T05:34:41;36.30;;;22.03;;
18526;SDS011;9393;42.158;24.748;2022-12-29T05:37:45;35.63;;;21.13;;
18526;SDS011;9393;42.158;24.748;2022-12-29T05:40:50;30.43;;;19.97;;
18526;SDS011;9393;42.158;24.748;2022-12-29T05:44:14;38.63;;;20.73;;
18526;SDS011;9393;42.158;24.748;2022-12-29T05:47:18;39.87;;;22.70;;
18526;SDS011;9393;42.158;24.748;2022-12-29T05:50:42;34.37;;;21.87;;
18526;SDS011;9393;42.158;24.748;2022-12-29T05:53:51;39.33;;;21.63;;
18526;SDS011;9393;42.158;24.748;2022-12-29T05:56:58;44.43;;;25.63;;
18526;SDS011;9393;42.158;24.748;2022-12-29T06:00:02;51.90;;;25.70;;
18526;SDS011;9393;42.158;24.748;2022-12-29T06:03:14;41.53;;;24.83;;
18526;SDS011;9393;42.158;24.748;2022-12-29T06:06:18;47.83;;;25.60;;
18526;SDS011;9393;42.158;24.748;2022-12-29T06:09:23;39.63;;;23.43;;
18526;SDS011;9393;42.158;24.748;2022-12-29T06:12:29;43.70;;;24.70;;
18526;SDS011;9393;42.158;24.748;2022-12-29T06:15:33;46.20;;;24.97;;
18526;SDS011;9393;42.158;24.748;2022-12-29T06:18:42;46.10;;;24.43;;
18526;SDS011;9393;42.158;24.748;2022-12-29T06:21:46;45.83;;;24.67;;
18526;SDS011;9393;42.158;24.748;2022-12-29T06:24:50;47.07;;;26.60;;
18526;SDS011;9393;42.158;24.748;2022-12-29T06:27:56;55.80;;;28.70;;
18526;SDS011;9393;42.158;24.748;2022-12-29T06:31:00;50.33;;;28.07;;
18526;SDS011;9393;42.158;24.748;2022-12-29T06:34:04;44.73;;;27.00;;
18526;SDS011;9393;42.158;24.748;2022-12-29T06:37:10;58.67;;;27.63;;
18526;SDS011;9393;42.158;24.748;2022-12-29T06:40:14;40.77;;;25.53;;
18526;SDS011;9393;42.158;24.748;2022-12-29T06:43:49;49.33;;;26.00;;
18526;SDS011;9393;42.158;24.748;2022-12-29T06:47:23;58.63;;;29.23;;
18526;SDS011;9393;42.158;24.748;2022-12-29T06:50:27;74.23;;;34.60;;
18526;SDS011;9393;42.158;24.748;2022-12-29T06:53:31;75.30;;;36.80;;
18526;SDS011;9393;42.158;24.748;2022-12-29T06:56:35;71.90;;;35.80;;
18526;SDS011;9393;42.158;24.748;2022-12-29T06:59:40;67.63;;;35.23;;
18526;SDS011;9393;42.158;24.748;2022-12-29T07:02:44;79.33;;;39.43;;
18526;SDS011;9393;42.158;24.748;2022-12-29T07:05:48;56.27;;;33.17;;
18526;SDS011;9393;42.158;24.748;2022-12-29T07:08:52;47.07;;;27.83;;
18526;SDS011;9393;42.158;24.748;2022-12-29T07:11:57;50.57;;;26.03;;
18526;SDS011;9393;42.158;24.748;2022-12-29T07:15:03;44.90;;;25.47;;
18526;SDS011;9393;42.158;24.748;2022-12-29T07:18:07;45.83;;;24.53;;
18526;SDS011;9393;42.158;24.748;2022-12-29T07:21:11;44.63;;;25.60;;
18526;SDS011;9393;42.158;24.748;2022-12-29T07:24:15;51.63;;;26.83;;
18526;SDS011;9393;42.158;24.748;2022-12-29T07:27:19;46.57;;;26.87;;
18526;SDS011;9393;42.158;24.748;2022-12-29T07:30:24;47.47;;;26.23;;
18526;SDS011;9393;42.158;24.748;2022-12-29T07:33:28;41.13;;;25.60;;
18526;SDS011;9393;42.158;24.748;2022-12-29T07:36:32;44.03;;;24.00;;
18526;SDS011;9393;42.158;24.748;2022-12-29T07:39:36;43.03;;;23.27;;
18526;SDS011;9393;42.158;24.748;2022-12-29T07:42:40;39.70;;;22.63;;
18526;SDS011;9393;42.158;24.748;2022-12-29T07:45:45;35.63;;;22.03;;
18526;SDS011;9393;42.158;24.748;2022-12-29T07:48:51;34.37;;;21.33;;
18526;SDS011;9393;42.158;24.748;2022-12-29T07:51:55;36.97;;;22.17;;
18526;SDS011;9393;42.158;24.748;2022-12-29T07:54:59;34.37;;;20.43;;
18526;SDS011;9393;42.158;24.748;2022-12-29T07:58:02;30.90;;;19.87;;
18526;SDS011;9393;42.158;24.748;2022-12-29T08:01:08;31.00;;;20.20;;
18526;SDS011;9393;42.158;24.748;2022-12-29T08:04:12;31.77;;;19.23;;
18526;SDS011;9393;42.158;24.748;2022-12-29T08:07:15;35.27;;;20.00;;
18526;SDS011;9393;42.158;24.748;2022-12-29T08:10:19;34.83;;;20.13;;
18526;SDS011;9393;42.158;24.748;2022-12-29T08:13:24;35.23;;;21.60;;
18526;SDS011;9393;42.158;24.748;2022-12-29T08:16:29;36.47;;;21.33;;
18526;SDS011;9393;42.158;24.748;2022-12-29T08:19:34;38.47;;;22.50;;
18526;SDS011;9393;42.158;24.748;2022-12-29T08:22:38;36.83;;;21.30;;
18526;SDS011;9393;42.158;24.748;2022-12-29T08:25:41;42.97;;;26.17;;
18526;SDS011;9393;42.158;24.748;2022-12-29T08:28:45;36.07;;;22.60;;
18526;SDS011;9393;42.158;24.748;2022-12-29T08:31:50;41.33;;;24.13;;
18526;SDS011;9393;42.158;24.748;2022-12-29T08:34:54;49.03;;;27.93;;
18526;SDS011;9393;42.158;24.748;2022-12-29T08:37:58;41.10;;;23.73;;
18526;SDS011;9393;42.158;24.748;2022-12-29T08:41:02;41.90;;;24.60;;
18526;SDS011;9393;42.158;24.748;2022-12-29T08:44:06;38.03;;;24.17;;
18526;SDS011;9393;42.158;24.748;2022-12-29T08:47:11;39.23;;;23.93;;
18526;SDS011;9393;42.158;24.748;2022-12-29T08:50:15;45.37;;;27.83;;
18526;SDS011;9393;42.158;24.748;2022-12-29T08:53:19;43.07;;;24.83;;
18526;SDS011;9393;42.158;24.748;2022-12-29T08:56:23;42.00;;;25.53;;
18526;SDS011;9393;42.158;24.748;2022-12-29T08:59:30;44.20;;;25.83;;
18526;SDS011;9393;42.158;24.748;2022-12-29T09:02:35;44.10;;;25.33;;
18526;SDS011;9393;42.158;24.748;2022-12-29T09:05:39;40.33;;;23.80;;
18526;SDS011;9393;42.158;24.748;2022-12-29T09:08:43;42.47;;;25.37;;
18526;SDS011;9393;42.158;24.748;2022-12-29T09:11:47;36.10;;;22.70;;
18526;SDS011;9393;42.158;24.748;2022-12-29T09:14:51;40.53;;;21.90;;
18526;SDS011;9393;42.158;24.748;2022-12-29T09:17:56;31.97;;;20.33;;
18526;SDS011;9393;42.158;24.748;2022-12-29T09:21:03;36.60;;;20.97;;
18526;SDS011;9393;42.158;24.748;2022-12-29T09:24:08;35.07;;;21.17;;
18526;SDS011;9393;42.158;24.748;2022-12-29T09:27:12;35.47;;;21.57;;
18526;SDS011;9393;42.158;24.748;2022-12-29T09:30:15;36.93;;;21.03;;
18526;SDS011;9393;42.158;24.748;2022-12-29T09:33:21;33.87;;;19.77;;
18526;SDS011;9393;42.158;24.748;2022-12-29T09:36:25;32.03;;;19.03;;
18526;SDS011;9393;42.158;24.748;2022-12-29T09:39:28;28.77;;;18.70;;
18526;SDS011;9393;42.158;24.748;2022-12-29T09:42:34;32.10;;;17.67;;
18526;SDS011;9393;42.158;24.748;2022-12-29T09:45:42;30.07;;;18.97;;
18526;SDS011;9393;42.158;24.748;2022-12-29T09:48:50;36.13;;;19.90;;
18526;SDS011;9393;42.158;24.748;2022-12-29T09:52:02;27.37;;;18.77;;
18526;SDS011;9393;42.158;24.748;2022-12-29T09:55:09;29.07;;;16.73;;
18526;SDS011;9393;42.158;24.748;2022-12-29T09:58:20;25.60;;;15.47;;
18526;SDS011;9393;42.158;24.748;2022-12-29T10:01:28;29.77;;;16.10;;
18526;SDS011;9393;42.158;24.748;2022-12-29T10:04:43;29.17;;;17.27;;
18526;SDS011;9393;42.158;24.748;2022-12-29T10:07:49;35.23;;;19.60;;
18526;SDS011;9393;42.158;24.748;2022-12-29T10:11:02;27.27;;;18.33;;
18526;SDS011;9393;42.158;24.748;2022-12-29T10:14:17;30.33;;;18.40;;
18526;SDS011;9393;42.158;24.748;2022-12-29T10:17:36;25.00;;;16.67;;
18526;SDS011;9393;42.158;24.748;2022-12-29T10:20:50;30.27;;;17.97;;
18526;SDS011;9393;42.158;24.748;2022-12-29T10:23:58;34.23;;;18.43;;
18526;SDS011;9393;42.158;24.748;2022-12-29T10:27:04;32.73;;;19.23;;
18526;SDS011;9393;42.158;24.748;2022-12-29T10:30:13;30.60;;;20.03;;
18526;SDS011;9393;42.158;24.748;2022-12-29T10:33:19;33.90;;;20.77;;
18526;SDS011;9393;42.158;24.748;2022-12-29T10:36:28;35.37;;;20.83;;
18526;SDS011;9393;42.158;24.748;2022-12-29T10:39:39;33.43;;;18.70;;
18526;SDS011;9393;42.158;24.748;2022-12-29T10:42:50;34.57;;;20.67;;
18526;SDS011;9393;42.158;24.748;2022-12-29T10:45:56;33.63;;;19.00;;
18526;SDS011;9393;42.158;24.748;2022-12-29T10:49:06;31.13;;;19.97;;
18526;SDS011;9393;42.158;24.748;2022-12-29T10:52:24;33.37;;;19.23;;
18526;SDS011;9393;42.158;24.748;2022-12-29T10:55:30;26.53;;;17.77;;
18526;SDS011;9393;42.158;24.748;2022-12-29T10:58:38;29.80;;;17.53;;
18526;SDS011;9393;42.158;24.748;2022-12-29T11:01:52;25.63;;;16.27;;
18526;SDS011;9393;42.158;24.748;2022-12-29T11:05:05;19.53;;;14.30;;
18526;SDS011;9393;42.158;24.748;2022-12-29T11:08:19;21.30;;;15.07;;
18526;SDS011;9393;42.158;24.748;2022-12-29T11:11:27;23.53;;;16.03;;
18526;SDS011;9393;42.158;24.748;2022-12-29T11:14:36;26.70;;;16.37;;
18526;SDS011;9393;42.158;24.748;2022-12-29T11:17:43;26.10;;;14.97;;
18526;SDS011;9393;42.158;24.748;2022-12-29T11:20:48;24.23;;;14.63;;
18526;SDS011;9393;42.158;24.748;2022-12-29T11:23:56;30.27;;;15.07;;
18526;SDS011;9393;42.158;24.748;2022-12-29T11:27:08;21.50;;;14.83;;
18526;SDS011;9393;42.158;24.748;2022-12-29T11:30:21;25.63;;;14.90;;
18526;SDS011;9393;42.158;24.748;2022-12-29T11:33:27;27.80;;;16.77;;
18526;SDS011;9393;42.158;24.748;2022-12-29T11:36:31;29.83;;;17.30;;
18526;SDS011;9393;42.158;24.748;2022-12-29T11:39:40;26.53;;;16.13;;
18526;SDS011;9393;42.158;24.748;2022-12-29T11:42:48;27.13;;;17.50;;
18526;SDS011;9393;42.158;24.748;2022-12-29T11:45:55;26.20;;;16.97;;
18526;SDS011;9393;42.158;24.748;2022-12-29T11:48:59;25.57;;;16.40;;
18526;SDS011;9393;42.158;24.748;2022-12-29T11:52:06;27.77;;;17.63;;
18526;SDS011;9393;42.158;24.748;2022-12-29T11:55:18;29.27;;;18.30;;
18526;SDS011;9393;42.158;24.748;2022-12-29T11:58:28;26.37;;;17.93;;
18526;SDS011;9393;42.158;24.748;2022-12-29T12:01:34;27.80;;;18.00;;
18526;SDS011;9393;42.158;24.748;2022-12-29T12:04:42;31.40;;;18.80;;
18526;SDS011;9393;42.158;24.748;2022-12-29T12:07:46;34.60;;;18.37;;
18526;SDS011;9393;42.158;24.748;2022-12-29T12:10:55;31.63;;;19.87;;
18526;SDS011;9393;42.158;24.748;2022-12-29T12:14:13;34.93;;;20.43;;
18526;SDS011;9393;42.158;24.748;2022-12-29T12:17:47;29.50;;;20.30;;
18526;SDS011;9393;42.158;24.748;2022-12-29T12:20:56;29.73;;;20.50;;
18526;SDS011;9393;42.158;24.748;2022-12-29T12:24:11;37.03;;;20.60;;
18526;SDS011;9393;42.158;24.748;2022-12-29T12:27:41;35.43;;;20.17;;
18526;SDS011;9393;42.158;24.748;2022-12-29T12:30:52;34.13;;;21.33;;
18526;SDS011;9393;42.158;24.748;2022-12-29T12:34:02;32.33;;;20.63;;
18526;SDS011;9393;42.158;24.748;2022-12-29T12:40:45;34.33;;;21.03;;
18526;SDS011;9393;42.158;24.748;2022-12-29T12:44:05;30.77;;;19.67;;
18526;SDS011;9393;42.158;24.748;2022-12-29T12:47:34;38.90;;;20.77;;
18526;SDS011;9393;42.158;24.748;2022-12-29T12:50:50;34.50;;;20.43;;
18526;SDS011;9393;42.158;24.748;2022-12-29T12:54:01;30.87;;;19.67;;
18526;SDS011;9393;42.158;24.748;2022-12-29T12:57:16;34.30;;;21.30;;
18526;SDS011;9393;42.158;24.748;2022-12-29T13:00:29;37.30;;;21.57;;
18526;SDS011;9393;42.158;24.748;2022-12-29T13:03:45;37.00;;;21.10;;
18526;SDS011;9393;42.158;24.748;2022-12-29T13:07:00;37.30;;;20.93;;
18526;SDS011;9393;42.158;24.748;2022-12-29T13:10:16;35.33;;;20.80;;
18526;SDS011;9393;42.158;24.748;2022-12-29T13:13:33;34.80;;;22.00;;
18526;SDS011;9393;42.158;24.748;2022-12-29T13:16:51;36.77;;;21.90;;
18526;SDS011;9393;42.158;24.748;2022-12-29T13:20:06;36.83;;;21.57;;
18526;SDS011;9393;42.158;24.748;2022-12-29T13:23:24;35.17;;;22.87;;
18526;SDS011;9393;42.158;24.748;2022-12-29T13:26:35;38.03;;;23.30;;
18526;SDS011;9393;42.158;24.748;2022-12-29T13:29:47;49.70;;;29.90;;
18526;SDS011;9393;42.158;24.748;2022-12-29T13:33:02;50.33;;;30.53;;
18526;SDS011;9393;42.158;24.748;2022-12-29T13:36:23;54.77;;;29.60;;
18526;SDS011;9393;42.158;24.748;2022-12-29T13:39:33;43.07;;;26.90;;
18526;SDS011;9393;42.158;24.748;2022-12-29T13:42:40;45.13;;;25.67;;
18526;SDS011;9393;42.158;24.748;2022-12-29T13:45:45;45.10;;;26.93;;
18526;SDS011;9393;42.158;24.748;2022-12-29T13:48:55;49.37;;;29.63;;
18526;SDS011;9393;42.158;24.748;2022-12-29T13:52:06;50.43;;;30.57;;
18526;SDS011;9393;42.158;24.748;2022-12-29T13:55:21;87.40;;;47.20;;
18526;SDS011;9393;42.158;24.748;2022-12-29T13:58:31;49.00;;;28.77;;
18526;SDS011;9393;42.158;24.748;2022-12-29T14:01:39;72.07;;;38.20;;
18526;SDS011;9393;42.158;24.748;2022-12-29T14:04:57;45.57;;;25.00;;
18526;SDS011;9393;42.158;24.748;2022-12-29T14:08:04;39.13;;;22.77;;
18526;SDS011;9393;42.158;24.748;2022-12-29T14:11:18;59.17;;;31.43;;
18526;SDS011;9393;42.158;24.748;2022-12-29T14:14:27;42.30;;;24.80;;
18526;SDS011;9393;42.158;24.748;2022-12-29T14:17:33;65.17;;;32.63;;
18526;SDS011;9393;42.158;24.748;2022-12-29T14:20:39;33.87;;;21.57;;
18526;SDS011;9393;42.158;24.748;2022-12-29T14:23:52;36.03;;;21.90;;
18526;SDS011;9393;42.158;24.748;2022-12-29T14:26:56;62.00;;;32.23;;
18526;SDS011;9393;42.158;24.748;2022-12-29T14:30:00;73.87;;;30.77;;
18526;SDS011;9393;42.158;24.748;2022-12-29T14:33:10;69.17;;;32.10;;
18526;SDS011;9393;42.158;24.748;2022-12-29T14:36:21;63.97;;;29.10;;
18526;SDS011;9393;42.158;24.748;2022-12-29T14:39:34;47.87;;;25.60;;
18526;SDS011;9393;42.158;24.748;2022-12-29T14:42:40;78.77;;;36.17;;
18526;SDS011;9393;42.158;24.748;2022-12-29T14:45:47;105.07;;;48.30;;
18526;SDS011;9393;42.158;24.748;2022-12-29T14:48:57;67.90;;;33.87;;
18526;SDS011;9393;42.158;24.748;2022-12-29T14:52:11;53.03;;;27.10;;
18526;SDS011;9393;42.158;24.748;2022-12-29T14:55:28;58.27;;;28.77;;
18526;SDS011;9393;42.158;24.748;2022-12-29T14:58:43;69.23;;;38.70;;
18526;SDS011;9393;42.158;24.748;2022-12-29T15:01:51;78.30;;;45.27;;
18526;SDS011;9393;42.158;24.748;2022-12-29T15:04:58;80.70;;;46.80;;
18526;SDS011;9393;42.158;24.748;2022-12-29T15:08:05;81.10;;;41.23;;
18526;SDS011;9393;42.158;24.748;2022-12-29T15:11:11;57.23;;;32.33;;
18526;SDS011;9393;42.158;24.748;2022-12-29T15:14:27;57.97;;;31.97;;
18526;SDS011;9393;42.158;24.748;2022-12-29T15:17:33;57.23;;;28.07;;
18526;SDS011;9393;42.158;24.748;2022-12-29T15:20:38;47.20;;;26.20;;
18526;SDS011;9393;42.158;24.748;2022-12-29T15:23:44;51.27;;;27.17;;
18526;SDS011;9393;42.158;24.748;2022-12-29T15:26:50;59.50;;;28.27;;
18526;SDS011;9393;42.158;24.748;2022-12-29T15:29:57;47.73;;;26.40;;
18526;SDS011;9393;42.158;24.748;2022-12-29T15:33:08;174.40;;;96.47;;
18526;SDS011;9393;42.158;24.748;2022-12-29T15:36:22;203.80;;;117.77;;
18526;SDS011;9393;42.158;24.748;2022-12-29T15:39:29;112.10;;;63.50;;
18526;SDS011;9393;42.158;24.748;2022-12-29T15:42:39;113.00;;;64.67;;
18526;SDS011;9393;42.158;24.748;2022-12-29T15:45:55;107.17;;;64.07;;
18526;SDS011;9393;42.158;24.748;2022-12-29T15:48:59;94.30;;;58.13;;
18526;SDS011;9393;42.158;24.748;2022-12-29T15:52:09;104.97;;;62.90;;
18526;SDS011;9393;42.158;24.748;2022-12-29T15:55:19;320.77;;;166.80;;
18526;SDS011;9393;42.158;24.748;2022-12-29T15:58:28;222.70;;;117.70;;
18526;SDS011;9393;42.158;24.748;2022-12-29T16:01:34;184.37;;;103.23;;
18526;SDS011;9393;42.158;24.748;2022-12-29T16:04:39;184.83;;;99.70;;
18526;SDS011;9393;42.158;24.748;2022-12-29T16:08:18;114.63;;;64.73;;
18526;SDS011;9393;42.158;24.748;2022-12-29T16:11:29;86.53;;;46.80;;
18526;SDS011;9393;42.158;24.748;2022-12-29T16:14:37;78.70;;;42.50;;
18526;SDS011;9393;42.158;24.748;2022-12-29T16:17:46;83.23;;;43.30;;
18526;SDS011;9393;42.158;24.748;2022-12-29T16:20:52;84.73;;;43.90;;
18526;SDS011;9393;42.158;24.748;2022-12-29T16:23:57;84.33;;;48.47;;
18526;SDS011;9393;42.158;24.748;2022-12-29T16:27:07;74.33;;;43.87;;
18526;SDS011;9393;42.158;24.748;2022-12-29T16:30:18;66.67;;;39.63;;
18526;SDS011;9393;42.158;24.748;2022-12-29T16:33:37;66.97;;;38.10;;
18526;SDS011;9393;42.158;24.748;2022-12-29T16:36:51;91.10;;;48.97;;
18526;SDS011;9393;42.158;24.748;2022-12-29T16:39:58;66.37;;;39.70;;
18526;SDS011;9393;42.158;24.748;2022-12-29T16:43:31;68.23;;;40.23;;
18526;SDS011;9393;42.158;24.748;2022-12-29T16:46:36;66.87;;;39.83;;
18526;SDS011;9393;42.158;24.748;2022-12-29T16:49:48;81.80;;;45.90;;
18526;SDS011;9393;42.158;24.748;2022-12-29T16:52:55;80.87;;;44.03;;
18526;SDS011;9393;42.158;24.748;2022-12-29T16:56:00;83.17;;;43.17;;
18526;SDS011;9393;42.158;24.748;2022-12-29T16:59:13;76.90;;;40.77;;
18526;SDS011;9393;42.158;24.748;2022-12-29T17:02:31;69.27;;;39.83;;
18526;SDS011;9393;42.158;24.748;2022-12-29T17:05:47;71.43;;;38.20;;
18526;SDS011;9393;42.158;24.748;2022-12-29T17:08:58;82.43;;;40.47;;
18526;SDS011;9393;42.158;24.748;2022-12-29T17:12:01;95.17;;;51.17;;
18526;SDS011;9393;42.158;24.748;2022-12-29T17:15:14;77.50;;;42.27;;
18526;SDS011;9393;42.158;24.748;2022-12-29T17:18:25;77.37;;;37.70;;
18526;SDS011;9393;42.158;24.748;2022-12-29T17:21:29;79.70;;;38.27;;
18526;SDS011;9393;42.158;24.748;2022-12-29T17:24:33;78.50;;;38.70;;
18526;SDS011;9393;42.158;24.748;2022-12-29T17:27:40;113.83;;;69.63;;
18526;SDS011;9393;42.158;24.748;2022-12-29T17:30:47;73.33;;;39.40;;
18526;SDS011;9393;42.158;24.748;2022-12-29T17:33:52;92.50;;;47.50;;
18526;SDS011;9393;42.158;24.748;2022-12-29T17:36:57;97.70;;;48.77;;
18526;SDS011;9393;42.158;24.748;2022-12-29T17:40:02;101.20;;;50.30;;
18526;SDS011;9393;42.158;24.748;2022-12-29T17:43:07;88.17;;;48.10;;
18526;SDS011;9393;42.158;24.748;2022-12-29T17:46:17;85.83;;;48.50;;
18526;SDS011;9393;42.158;24.748;2022-12-29T17:49:21;90.53;;;51.17;;
18526;SDS011;9393;42.158;24.748;2022-12-29T17:52:25;116.33;;;56.63;;
18526;SDS011;9393;42.158;24.748;2022-12-29T17:55:29;98.90;;;53.53;;
18526;SDS011;9393;42.158;24.748;2022-12-29T17:58:39;106.27;;;52.47;;
18526;SDS011;9393;42.158;24.748;2022-12-29T18:01:46;94.23;;;50.33;;
18526;SDS011;9393;42.158;24.748;2022-12-29T18:04:51;90.13;;;48.97;;
18526;SDS011;9393;42.158;24.748;2022-12-29T18:07:56;101.43;;;50.30;;
18526;SDS011;9393;42.158;24.748;2022-12-29T18:11:01;114.03;;;50.97;;
18526;SDS011;9393;42.158;24.748;2022-12-29T18:14:07;108.27;;;52.70;;
18526;SDS011;9393;42.158;24.748;2022-12-29T18:17:16;112.90;;;52.83;;
18526;SDS011;9393;42.158;24.748;2022-12-29T18:20:19;109.17;;;54.20;;
18526;SDS011;9393;42.158;24.748;2022-12-29T18:23:24;104.00;;;53.07;;
18526;SDS011;9393;42.158;24.748;2022-12-29T18:26:29;111.83;;;54.43;;
18526;SDS011;9393;42.158;24.748;2022-12-29T18:29:36;112.50;;;55.50;;